sensor_id;sensor_type;location;lat;lon;timestamp;pressure;altitude;pressure_sealevel;temperature;humidity
43681;BME280;29281;50.356;30.894;2023-10-09T00:00:00;99816.25;;;7.48;64.02
43681;BME280;29281;50.356;30.894;2023-10-09T00:01:10;99814.05;;;7.69;64.05
43681;BME280;29281;50.356;30.894;2023-10-09T00:02:16;99814.98;;;7.82;63.56
43681;BME280;29281;50.356;30.894;2023-10-09T00:03:19;99818.87;;;7.76;63.44
43681;BME280;29281;50.356;30.894;2023-10-09T00:04:25;99814.12;;;7.82;63.41
43681;BME280;29281;50.356;30.894;2023-10-09T00:05:30;99813.38;;;7.80;63.68
43681;BME280;29281;50.356;30.894;2023-10-09T00:06:50;99814.44;;;7.77;63.69
43681;BME280;29281;50.356;30.894;2023-10-09T00:07:56;99818.67;;;7.65;63.90
43681;BME280;29281;50.356;30.894;2023-10-09T00:09:01;99815.39;;;7.62;64.09
43681;BME280;29281;50.356;30.894;2023-10-09T00:10:21;99811.23;;;7.58;64.33
43681;BME280;29281;50.356;30.894;2023-10-09T00:11:24;99826.98;;;7.73;63.98
43681;BME280;29281;50.356;30.894;2023-10-09T00:12:31;99828.88;;;7.71;64.44
43681;BME280;29281;50.356;30.894;2023-10-09T00:13:36;99821.21;;;7.81;64.33
43681;BME280;29281;50.356;30.894;2023-10-09T00:14:41;99825.11;;;7.75;64.10
43681;BME280;29281;50.356;30.894;2023-10-09T00:15:47;99829.63;;;7.73;64.45
43681;BME280;29281;50.356;30.894;2023-10-09T00:16:53;99828.78;;;7.73;64.65
43681;BME280;29281;50.356;30.894;2023-10-09T00:18:00;99816.79;;;7.53;64.53
43681;BME280;29281;50.356;30.894;2023-10-09T00:19:05;99824.63;;;7.40;65.44
43681;BME280;29281;50.356;30.894;2023-10-09T00:20:22;99824.90;;;7.64;65.15
43681;BME280;29281;50.356;30.894;2023-10-09T00:21:26;99821.71;;;7.59;65.60
43681;BME280;29281;50.356;30.894;2023-10-09T00:22:32;99833.89;;;7.62;65.34
43681;BME280;29281;50.356;30.894;2023-10-09T00:23:36;99836.98;;;7.54;65.48
43681;BME280;29281;50.356;30.894;2023-10-09T00:24:41;99837.75;;;7.56;65.27
43681;BME280;29281;50.356;30.894;2023-10-09T00:25:49;99847.09;;;7.48;65.47
43681;BME280;29281;50.356;30.894;2023-10-09T00:26:57;99841.69;;;7.49;65.68
43681;BME280;29281;50.356;30.894;2023-10-09T00:28:21;99839.53;;;7.41;65.94
43681;BME280;29281;50.356;30.894;2023-10-09T00:29:25;99839.44;;;7.43;65.77
43681;BME280;29281;50.356;30.894;2023-10-09T00:30:34;99851.98;;;7.39;66.02
43681;BME280;29281;50.356;30.894;2023-10-09T00:31:38;99849.42;;;7.38;65.70
43681;BME280;29281;50.356;30.894;2023-10-09T00:32:45;99840.75;;;7.50;65.57
43681;BME280;29281;50.356;30.894;2023-10-09T00:33:51;99846.44;;;7.58;65.10
43681;BME280;29281;50.356;30.894;2023-10-09T00:34:56;99851.71;;;7.44;65.79
43681;BME280;29281;50.356;30.894;2023-10-09T00:36:03;99850.38;;;7.51;65.42
43681;BME280;29281;50.356;30.894;2023-10-09T00:37:13;99850.59;;;7.48;65.65
43681;BME280;29281;50.356;30.894;2023-10-09T00:38:19;99858.27;;;7.23;66.43
43681;BME280;29281;50.356;30.894;2023-10-09T00:39:24;99853.95;;;7.36;66.48
43681;BME280;29281;50.356;30.894;2023-10-09T00:40:51;99858.78;;;7.44;65.99
43681;BME280;29281;50.356;30.894;2023-10-09T00:41:57;99865.11;;;7.55;65.84
43681;BME280;29281;50.356;30.894;2023-10-09T00:43:04;99857.44;;;7.36;66.11
43681;BME280;29281;50.356;30.894;2023-10-09T00:44:11;99866.78;;;7.28;66.38
43681;BME280;29281;50.356;30.894;2023-10-09T00:45:18;99862.17;;;7.31;66.88
43681;BME280;29281;50.356;30.894;2023-10-09T00:46:25;99849.03;;;7.16;67.45
43681;BME280;29281;50.356;30.894;2023-10-09T00:47:32;99857.39;;;7.08;67.93
43681;BME280;29281;50.356;30.894;2023-10-09T00:48:43;99856.16;;;6.99;68.76
43681;BME280;29281;50.356;30.894;2023-10-09T00:49:59;99857.65;;;7.03;68.64
43681;BME280;29281;50.356;30.894;2023-10-09T00:51:05;99860.08;;;6.92;68.70
43681;BME280;29281;50.356;30.894;2023-10-09T00:52:13;99866.63;;;7.01;69.17
43681;BME280;29281;50.356;30.894;2023-10-09T00:53:20;99857.06;;;7.28;68.46
43681;BME280;29281;50.356;30.894;2023-10-09T00:54:28;99858.20;;;7.38;68.48
43681;BME280;29281;50.356;30.894;2023-10-09T00:55:34;99864.28;;;7.11;68.62
43681;BME280;29281;50.356;30.894;2023-10-09T00:56:43;99854.95;;;7.19;68.38
43681;BME280;29281;50.356;30.894;2023-10-09T00:57:48;99861.05;;;7.05;68.92
43681;BME280;29281;50.356;30.894;2023-10-09T00:58:58;99861.99;;;7.04;69.34
43681;BME280;29281;50.356;30.894;2023-10-09T01:00:24;99866.54;;;7.02;69.55
43681;BME280;29281;50.356;30.894;2023-10-09T01:01:40;99860.29;;;7.03;69.70
43681;BME280;29281;50.356;30.894;2023-10-09T01:02:46;99874.53;;;7.31;68.92
43681;BME280;29281;50.356;30.894;2023-10-09T01:03:53;99871.21;;;7.27;69.02
43681;BME280;29281;50.356;30.894;2023-10-09T01:04:57;99868.89;;;7.07;70.08
43681;BME280;29281;50.356;30.894;2023-10-09T01:06:02;99871.89;;;7.31;69.50
43681;BME280;29281;50.356;30.894;2023-10-09T01:07:15;99874.91;;;7.39;69.41
43681;BME280;29281;50.356;30.894;2023-10-09T01:08:20;99876.61;;;7.40;69.37
43681;BME280;29281;50.356;30.894;2023-10-09T01:09:42;99871.18;;;7.13;70.42
43681;BME280;29281;50.356;30.894;2023-10-09T01:10:48;99876.94;;;7.20;70.73
43681;BME280;29281;50.356;30.894;2023-10-09T01:11:54;99877.10;;;7.02;71.39
43681;BME280;29281;50.356;30.894;2023-10-09T01:13:04;99880.19;;;7.39;70.49
43681;BME280;29281;50.356;30.894;2023-10-09T01:14:07;99882.59;;;7.14;70.98
43681;BME280;29281;50.356;30.894;2023-10-09T01:15:12;99877.78;;;7.20;70.33
43681;BME280;29281;50.356;30.894;2023-10-09T01:16:20;99878.75;;;7.33;70.19
43681;BME280;29281;50.356;30.894;2023-10-09T01:17:26;99884.59;;;7.24;69.79
43681;BME280;29281;50.356;30.894;2023-10-09T01:18:39;99877.34;;;7.28;69.91
43681;BME280;29281;50.356;30.894;2023-10-09T01:19:41;99880.84;;;7.28;69.66
43681;BME280;29281;50.356;30.894;2023-10-09T01:20:47;99877.70;;;7.22;70.04
43681;BME280;29281;50.356;30.894;2023-10-09T01:21:51;99882.22;;;7.20;69.50
43681;BME280;29281;50.356;30.894;2023-10-09T01:22:55;99881.48;;;7.18;69.88
43681;BME280;29281;50.356;30.894;2023-10-09T01:23:59;99883.56;;;7.27;70.00
43681;BME280;29281;50.356;30.894;2023-10-09T01:25:07;99885.94;;;7.31;69.89
43681;BME280;29281;50.356;30.894;2023-10-09T01:26:11;99878.98;;;7.45;69.55
43681;BME280;29281;50.356;30.894;2023-10-09T01:27:15;99884.46;;;7.56;68.95
43681;BME280;29281;50.356;30.894;2023-10-09T01:28:19;99878.39;;;7.39;68.99
43681;BME280;29281;50.356;30.894;2023-10-09T01:29:23;99887.53;;;7.34;69.58
43681;BME280;29281;50.356;30.894;2023-10-09T01:30:31;99891.95;;;7.33;69.26
43681;BME280;29281;50.356;30.894;2023-10-09T01:31:39;99888.50;;;7.33;69.29
43681;BME280;29281;50.356;30.894;2023-10-09T01:32:46;99889.31;;;7.33;69.51
43681;BME280;29281;50.356;30.894;2023-10-09T01:33:52;99887.06;;;7.27;69.30
43681;BME280;29281;50.356;30.894;2023-10-09T01:34:58;99893.37;;;7.25;69.64
43681;BME280;29281;50.356;30.894;2023-10-09T01:36:01;99900.12;;;7.45;69.35
43681;BME280;29281;50.356;30.894;2023-10-09T01:37:06;99894.72;;;7.32;69.83
43681;BME280;29281;50.356;30.894;2023-10-09T01:38:13;99896.51;;;7.31;69.93
43681;BME280;29281;50.356;30.894;2023-10-09T01:39:18;99900.30;;;7.41;69.59
43681;BME280;29281;50.356;30.894;2023-10-09T01:40:27;99902.91;;;7.27;69.35
43681;BME280;29281;50.356;30.894;2023-10-09T01:41:32;99900.94;;;7.31;69.11
43681;BME280;29281;50.356;30.894;2023-10-09T01:42:38;99898.09;;;7.34;69.34
43681;BME280;29281;50.356;30.894;2023-10-09T01:43:45;99914.56;;;7.53;68.83
43681;BME280;29281;50.356;30.894;2023-10-09T01:44:48;99901.66;;;7.63;68.70
43681;BME280;29281;50.356;30.894;2023-10-09T01:45:53;99904.64;;;7.43;68.46
43681;BME280;29281;50.356;30.894;2023-10-09T01:46:57;99904.61;;;7.28;69.13
43681;BME280;29281;50.356;30.894;2023-10-09T01:48:02;99908.39;;;7.38;69.03
43681;BME280;29281;50.356;30.894;2023-10-09T01:49:08;99897.45;;;7.30;69.18
43681;BME280;29281;50.356;30.894;2023-10-09T01:50:15;99904.55;;;7.44;68.67
43681;BME280;29281;50.356;30.894;2023-10-09T01:51:24;99915.20;;;7.43;68.32
43681;BME280;29281;50.356;30.894;2023-10-09T01:52:27;99915.20;;;7.43;68.47
43681;BME280;29281;50.356;30.894;2023-10-09T01:53:33;99908.36;;;7.24;68.97
43681;BME280;29281;50.356;30.894;2023-10-09T01:54:39;99906.87;;;7.34;68.70
43681;BME280;29281;50.356;30.894;2023-10-09T01:55:48;99906.16;;;7.47;69.12
43681;BME280;29281;50.356;30.894;2023-10-09T01:56:52;99910.33;;;7.21;68.60
43681;BME280;29281;50.356;30.894;2023-10-09T01:57:58;99902.23;;;7.24;69.08
43681;BME280;29281;50.356;30.894;2023-10-09T01:59:04;99906.14;;;7.32;68.65
43681;BME280;29281;50.356;30.894;2023-10-09T02:00:12;99911.59;;;7.29;68.73
43681;BME280;29281;50.356;30.894;2023-10-09T02:01:19;99916.45;;;7.21;68.01
43681;BME280;29281;50.356;30.894;2023-10-09T02:02:25;99920.89;;;7.21;68.02
43681;BME280;29281;50.356;30.894;2023-10-09T02:03:30;99923.83;;;7.16;68.41
43681;BME280;29281;50.356;30.894;2023-10-09T02:04:34;99916.24;;;7.10;67.53
43681;BME280;29281;50.356;30.894;2023-10-09T02:05:41;99920.13;;;7.19;67.29
43681;BME280;29281;50.356;30.894;2023-10-09T02:06:45;99933.11;;;7.08;67.50
43681;BME280;29281;50.356;30.894;2023-10-09T02:07:49;99915.39;;;7.10;67.64
43681;BME280;29281;50.356;30.894;2023-10-09T02:08:55;99924.51;;;7.04;67.38
43681;BME280;29281;50.356;30.894;2023-10-09T02:10:00;99922.20;;;7.14;67.51
43681;BME280;29281;50.356;30.894;2023-10-09T02:11:05;99918.29;;;7.35;67.21
43681;BME280;29281;50.356;30.894;2023-10-09T02:12:10;99918.08;;;7.24;67.54
43681;BME280;29281;50.356;30.894;2023-10-09T02:13:14;99914.33;;;7.28;67.54
43681;BME280;29281;50.356;30.894;2023-10-09T02:14:20;99921.31;;;7.29;67.66
43681;BME280;29281;50.356;30.894;2023-10-09T02:15:23;99910.95;;;7.40;67.37
43681;BME280;29281;50.356;30.894;2023-10-09T02:16:47;99920.38;;;7.30;67.40
43681;BME280;29281;50.356;30.894;2023-10-09T02:18:07;99921.22;;;7.30;67.10
43681;BME280;29281;50.356;30.894;2023-10-09T02:19:28;99924.03;;;7.27;67.30
43681;BME280;29281;50.356;30.894;2023-10-09T02:20:33;99921.19;;;7.16;67.96
43681;BME280;29281;50.356;30.894;2023-10-09T02:21:39;99935.62;;;7.25;67.77
43681;BME280;29281;50.356;30.894;2023-10-09T02:22:45;99929.66;;;7.21;67.98
43681;BME280;29281;50.356;30.894;2023-10-09T02:23:50;99931.70;;;7.32;67.76
43681;BME280;29281;50.356;30.894;2023-10-09T02:24:54;99941.50;;;7.30;67.43
43681;BME280;29281;50.356;30.894;2023-10-09T02:26:06;99931.45;;;7.21;67.68
43681;BME280;29281;50.356;30.894;2023-10-09T02:27:12;99934.47;;;7.15;68.04
43681;BME280;29281;50.356;30.894;2023-10-09T02:28:17;99932.94;;;7.11;68.50
43681;BME280;29281;50.356;30.894;2023-10-09T02:29:23;99933.75;;;7.27;68.19
43681;BME280;29281;50.356;30.894;2023-10-09T02:30:27;99939.88;;;7.27;68.07
43681;BME280;29281;50.356;30.894;2023-10-09T02:31:32;99939.97;;;7.26;68.29
43681;BME280;29281;50.356;30.894;2023-10-09T02:32:40;99949.33;;;7.01;69.33
43681;BME280;29281;50.356;30.894;2023-10-09T02:33:44;99952.95;;;7.15;68.59
43681;BME280;29281;50.356;30.894;2023-10-09T02:34:49;99952.72;;;7.33;68.06
43681;BME280;29281;50.356;30.894;2023-10-09T02:35:57;99949.05;;;7.36;68.00
43681;BME280;29281;50.356;30.894;2023-10-09T02:37:03;99948.61;;;7.44;67.67
43681;BME280;29281;50.356;30.894;2023-10-09T02:38:10;99947.55;;;7.32;67.83
43681;BME280;29281;50.356;30.894;2023-10-09T02:39:17;99951.64;;;7.22;68.37
43681;BME280;29281;50.356;30.894;2023-10-09T02:40:28;99960.20;;;7.41;68.13
43681;BME280;29281;50.356;30.894;2023-10-09T02:41:37;99953.86;;;7.29;68.21
43681;BME280;29281;50.356;30.894;2023-10-09T02:42:42;99949.34;;;7.31;67.83
43681;BME280;29281;50.356;30.894;2023-10-09T02:43:48;99961.48;;;7.34;67.71
43681;BME280;29281;50.356;30.894;2023-10-09T02:44:55;99960.33;;;7.24;68.07
43681;BME280;29281;50.356;30.894;2023-10-09T02:46:02;99958.06;;;7.18;68.52
43681;BME280;29281;50.356;30.894;2023-10-09T02:47:12;99953.04;;;7.13;68.09
43681;BME280;29281;50.356;30.894;2023-10-09T02:48:18;99961.64;;;7.17;67.95
43681;BME280;29281;50.356;30.894;2023-10-09T02:49:24;99959.34;;;7.11;68.07
43681;BME280;29281;50.356;30.894;2023-10-09T02:50:29;99967.44;;;7.08;68.25
43681;BME280;29281;50.356;30.894;2023-10-09T02:51:35;99965.02;;;7.19;68.30
43681;BME280;29281;50.356;30.894;2023-10-09T02:52:41;99973.28;;;7.28;68.11
43681;BME280;29281;50.356;30.894;2023-10-09T02:53:43;99966.77;;;7.34;68.58
43681;BME280;29281;50.356;30.894;2023-10-09T02:54:47;99964.89;;;7.36;68.92
43681;BME280;29281;50.356;30.894;2023-10-09T02:55:51;99965.53;;;7.25;69.43
43681;BME280;29281;50.356;30.894;2023-10-09T02:57:00;99962.67;;;7.14;69.72
43681;BME280;29281;50.356;30.894;2023-10-09T02:58:11;99967.49;;;7.22;69.21
43681;BME280;29281;50.356;30.894;2023-10-09T02:59:16;99966.24;;;7.13;69.36
43681;BME280;29281;50.356;30.894;2023-10-09T03:00:20;99969.45;;;7.18;68.79
43681;BME280;29281;50.356;30.894;2023-10-09T03:01:27;99964.89;;;7.36;68.33
43681;BME280;29281;50.356;30.894;2023-10-09T03:02:32;99970.98;;;7.52;67.59
43681;BME280;29281;50.356;30.894;2023-10-09T03:03:36;99964.89;;;7.36;67.50
43681;BME280;29281;50.356;30.894;2023-10-09T03:04:41;99971.66;;;7.26;67.95
43681;BME280;29281;50.356;30.894;2023-10-09T03:05:44;99961.09;;;7.26;68.06
43681;BME280;29281;50.356;30.894;2023-10-09T03:06:48;99965.27;;;7.30;67.94
43681;BME280;29281;50.356;30.894;2023-10-09T03:07:54;99976.35;;;7.21;68.36
43681;BME280;29281;50.356;30.894;2023-10-09T03:08:59;99969.70;;;7.29;68.32
43681;BME280;29281;50.356;30.894;2023-10-09T03:10:05;99974.22;;;7.27;68.38
43681;BME280;29281;50.356;30.894;2023-10-09T03:11:11;99981.30;;;7.27;68.26
43681;BME280;29281;50.356;30.894;2023-10-09T03:12:19;99979.42;;;7.29;68.52
43681;BME280;29281;50.356;30.894;2023-10-09T03:13:28;99976.64;;;7.16;68.92
43681;BME280;29281;50.356;30.894;2023-10-09T03:14:35;99981.13;;;7.30;68.70
43681;BME280;29281;50.356;30.894;2023-10-09T03:15:40;99976.72;;;7.15;68.53
43681;BME280;29281;50.356;30.894;2023-10-09T03:16:46;99980.55;;;7.09;68.72
43681;BME280;29281;50.356;30.894;2023-10-09T03:17:52;99978.59;;;7.13;68.88
43681;BME280;29281;50.356;30.894;2023-10-09T03:18:56;99992.20;;;7.21;68.72
43681;BME280;29281;50.356;30.894;2023-10-09T03:20:03;99983.42;;;7.20;68.55
43681;BME280;29281;50.356;30.894;2023-10-09T03:21:08;99992.22;;;7.05;68.88
43681;BME280;29281;50.356;30.894;2023-10-09T03:22:13;99986.66;;;7.25;68.58
43681;BME280;29281;50.356;30.894;2023-10-09T03:23:19;99988.14;;;7.15;68.70
43681;BME280;29281;50.356;30.894;2023-10-09T03:24:26;99984.81;;;7.12;69.10
43681;BME280;29281;50.356;30.894;2023-10-09T03:25:30;99993.73;;;7.25;68.89
43681;BME280;29281;50.356;30.894;2023-10-09T03:26:34;99988.96;;;7.31;68.49
43681;BME280;29281;50.356;30.894;2023-10-09T03:27:42;99988.76;;;7.34;68.62
43681;BME280;29281;50.356;30.894;2023-10-09T03:28:45;99987.26;;;7.30;68.38
43681;BME280;29281;50.356;30.894;2023-10-09T03:29:48;99984.78;;;7.27;68.58
43681;BME280;29281;50.356;30.894;2023-10-09T03:30:53;99980.79;;;7.50;67.85
43681;BME280;29281;50.356;30.894;2023-10-09T03:31:57;99994.30;;;7.46;67.75
43681;BME280;29281;50.356;30.894;2023-10-09T03:32:59;99998.47;;;7.34;68.62
43681;BME280;29281;50.356;30.894;2023-10-09T03:34:05;99995.69;;;7.21;68.89
43681;BME280;29281;50.356;30.894;2023-10-09T03:35:09;99994.36;;;7.14;69.22
43681;BME280;29281;50.356;30.894;2023-10-09T03:36:17;99995.35;;;7.27;68.90
43681;BME280;29281;50.356;30.894;2023-10-09T03:37:20;99994.41;;;7.28;69.15
43681;BME280;29281;50.356;30.894;2023-10-09T03:38:40;100005.63;;;7.48;68.54
43681;BME280;29281;50.356;30.894;2023-10-09T03:39:43;99990.62;;;7.48;68.23
43681;BME280;29281;50.356;30.894;2023-10-09T03:40:48;100002.02;;;7.49;68.35
43681;BME280;29281;50.356;30.894;2023-10-09T03:41:52;100010.58;;;7.38;68.39
43681;BME280;29281;50.356;30.894;2023-10-09T03:42:59;100001.57;;;7.26;68.88
43681;BME280;29281;50.356;30.894;2023-10-09T03:44:03;100004.05;;;7.29;69.11
43681;BME280;29281;50.356;30.894;2023-10-09T03:45:06;99990.92;;;7.28;68.99
43681;BME280;29281;50.356;30.894;2023-10-09T03:46:13;100002.17;;;7.31;68.84
43681;BME280;29281;50.356;30.894;2023-10-09T03:47:22;100002.73;;;7.36;68.99
43681;BME280;29281;50.356;30.894;2023-10-09T03:48:30;100000.63;;;7.27;69.16
43681;BME280;29281;50.356;30.894;2023-10-09T03:49:39;99999.36;;;7.19;69.12
43681;BME280;29281;50.356;30.894;2023-10-09T03:50:42;100004.56;;;7.04;68.77
43681;BME280;29281;50.356;30.894;2023-10-09T03:51:45;100014.81;;;6.95;68.69
43681;BME280;29281;50.356;30.894;2023-10-09T03:52:49;100016.84;;;7.05;68.54
43681;BME280;29281;50.356;30.894;2023-10-09T03:53:57;100002.79;;;6.89;69.41
43681;BME280;29281;50.356;30.894;2023-10-09T03:55:00;100012.25;;;6.78;69.27
43681;BME280;29281;50.356;30.894;2023-10-09T03:56:06;100014.03;;;6.77;69.62
43681;BME280;29281;50.356;30.894;2023-10-09T03:57:10;100020.34;;;6.90;69.38
43681;BME280;29281;50.356;30.894;2023-10-09T03:58:14;100021.79;;;6.96;69.50
43681;BME280;29281;50.356;30.894;2023-10-09T03:59:18;100021.09;;;6.61;69.87
43681;BME280;29281;50.356;30.894;2023-10-09T04:00:27;100021.53;;;6.69;70.03
43681;BME280;29281;50.356;30.894;2023-10-09T04:01:34;100023.24;;;6.70;69.73
43681;BME280;29281;50.356;30.894;2023-10-09T04:02:47;100036.44;;;6.70;69.74
43681;BME280;29281;50.356;30.894;2023-10-09T04:03:58;100034.87;;;6.50;70.77
43681;BME280;29281;50.356;30.894;2023-10-09T04:04:59;100035.98;;;6.62;70.60
43681;BME280;29281;50.356;30.894;2023-10-09T04:06:04;100038.56;;;6.79;70.10
43681;BME280;29281;50.356;30.894;2023-10-09T04:07:09;100033.52;;;6.75;70.35
43681;BME280;29281;50.356;30.894;2023-10-09T04:08:12;100033.87;;;6.68;70.99
43681;BME280;29281;50.356;30.894;2023-10-09T04:09:23;100038.40;;;6.82;70.82
43681;BME280;29281;50.356;30.894;2023-10-09T04:10:28;100046.99;;;6.70;71.46
43681;BME280;29281;50.356;30.894;2023-10-09T04:11:49;100041.42;;;6.59;72.02
43681;BME280;29281;50.356;30.894;2023-10-09T04:12:55;100051.78;;;6.46;72.86
43681;BME280;29281;50.356;30.894;2023-10-09T04:14:01;100050.54;;;6.53;72.96
43681;BME280;29281;50.356;30.894;2023-10-09T04:15:07;100043.95;;;6.45;73.88
43681;BME280;29281;50.356;30.894;2023-10-09T04:16:14;100043.02;;;6.46;74.45
43681;BME280;29281;50.356;30.894;2023-10-09T04:17:39;100056.20;;;6.46;74.70
43681;BME280;29281;50.356;30.894;2023-10-09T04:18:46;100051.23;;;6.57;74.52
43681;BME280;29281;50.356;30.894;2023-10-09T04:19:51;100059.55;;;6.49;75.19
43681;BME280;29281;50.356;30.894;2023-10-09T04:21:14;100061.83;;;6.40;76.28
43681;BME280;29281;50.356;30.894;2023-10-09T04:22:25;100065.40;;;6.39;77.06
43681;BME280;29281;50.356;30.894;2023-10-09T04:23:31;100069.22;;;6.16;78.62
43681;BME280;29281;50.356;30.894;2023-10-09T04:24:40;100071.60;;;6.38;78.32
43681;BME280;29281;50.356;30.894;2023-10-09T04:25:48;100073.27;;;6.56;77.66
43681;BME280;29281;50.356;30.894;2023-10-09T04:26:55;100066.21;;;6.56;77.52
43681;BME280;29281;50.356;30.894;2023-10-09T04:28:02;100074.39;;;6.34;78.48
43681;BME280;29281;50.356;30.894;2023-10-09T04:29:19;100068.42;;;6.31;78.92
43681;BME280;29281;50.356;30.894;2023-10-09T04:30:32;100061.02;;;6.55;78.05
43681;BME280;29281;50.356;30.894;2023-10-09T04:31:40;100071.72;;;6.52;78.41
43681;BME280;29281;50.356;30.894;2023-10-09T04:32:44;100070.44;;;6.59;78.25
43681;BME280;29281;50.356;30.894;2023-10-09T04:33:48;100067.80;;;6.59;78.37
43681;BME280;29281;50.356;30.894;2023-10-09T04:34:58;100071.06;;;6.64;78.29
43681;BME280;29281;50.356;30.894;2023-10-09T04:36:04;100080.92;;;6.60;78.13
43681;BME280;29281;50.356;30.894;2023-10-09T04:37:28;100071.06;;;6.64;78.38
43681;BME280;29281;50.356;30.894;2023-10-09T04:38:36;100067.65;;;6.62;78.15
43681;BME280;29281;50.356;30.894;2023-10-09T04:39:41;100074.90;;;6.74;78.01
43681;BME280;29281;50.356;30.894;2023-10-09T04:40:50;100078.55;;;6.56;78.34
43681;BME280;29281;50.356;30.894;2023-10-09T04:41:55;100076.22;;;6.50;79.03
43681;BME280;29281;50.356;30.894;2023-10-09T04:43:19;100077.66;;;6.40;79.34
43681;BME280;29281;50.356;30.894;2023-10-09T04:44:26;100080.80;;;6.46;79.91
43681;BME280;29281;50.356;30.894;2023-10-09T04:45:37;100079.80;;;6.49;79.18
43681;BME280;29281;50.356;30.894;2023-10-09T04:46:58;100087.39;;;6.55;79.01
43681;BME280;29281;50.356;30.894;2023-10-09T04:48:20;100087.75;;;6.64;78.89
43681;BME280;29281;50.356;30.894;2023-10-09T04:49:39;100086.81;;;6.65;78.58
43681;BME280;29281;50.356;30.894;2023-10-09T04:50:55;100096.78;;;6.76;77.66
43681;BME280;29281;50.356;30.894;2023-10-09T04:52:04;100087.35;;;6.72;77.97
43681;BME280;29281;50.356;30.894;2023-10-09T04:53:13;100103.92;;;6.74;77.84
43681;BME280;29281;50.356;30.894;2023-10-09T04:54:19;100101.59;;;6.85;77.41
43681;BME280;29281;50.356;30.894;2023-10-09T04:55:26;100099.03;;;6.84;77.58
43681;BME280;29281;50.356;30.894;2023-10-09T04:56:30;100110.67;;;6.80;77.15
43681;BME280;29281;50.356;30.894;2023-10-09T04:57:36;100102.22;;;6.73;77.43
43681;BME280;29281;50.356;30.894;2023-10-09T04:58:48;100111.73;;;6.60;78.30
43681;BME280;29281;50.356;30.894;2023-10-09T04:59:59;100117.12;;;6.74;77.65
43681;BME280;29281;50.356;30.894;2023-10-09T05:01:03;100116.73;;;6.82;77.33
43681;BME280;29281;50.356;30.894;2023-10-09T05:02:09;100124.41;;;6.86;77.13
43681;BME280;29281;50.356;30.894;2023-10-09T05:03:14;100121.66;;;6.72;77.45
43681;BME280;29281;50.356;30.894;2023-10-09T05:04:20;100123.88;;;6.80;77.31
43681;BME280;29281;50.356;30.894;2023-10-09T05:05:31;100116.19;;;6.75;77.56
43681;BME280;29281;50.356;30.894;2023-10-09T05:06:48;100130.59;;;6.69;77.80
43681;BME280;29281;50.356;30.894;2023-10-09T05:08:00;100129.58;;;6.72;77.68
43681;BME280;29281;50.356;30.894;2023-10-09T05:09:06;100127.95;;;6.69;78.01
43681;BME280;29281;50.356;30.894;2023-10-09T05:10:15;100133.81;;;6.75;77.60
43681;BME280;29281;50.356;30.894;2023-10-09T05:11:21;100132.67;;;6.96;76.86
43681;BME280;29281;50.356;30.894;2023-10-09T05:12:42;100139.16;;;7.22;76.08
43681;BME280;29281;50.356;30.894;2023-10-09T05:13:50;100133.45;;;6.98;76.60
43681;BME280;29281;50.356;30.894;2023-10-09T05:14:55;100134.59;;;6.77;77.22
43681;BME280;29281;50.356;30.894;2023-10-09T05:16:10;100132.91;;;6.91;77.14
43681;BME280;29281;50.356;30.894;2023-10-09T05:17:29;100130.81;;;6.98;76.66
43681;BME280;29281;50.356;30.894;2023-10-09T05:18:34;100140.18;;;7.19;75.78
43681;BME280;29281;50.356;30.894;2023-10-09T05:19:39;100146.30;;;7.04;76.25
43681;BME280;29281;50.356;30.894;2023-10-09T05:20:47;100152.59;;;6.86;76.60
43681;BME280;29281;50.356;30.894;2023-10-09T05:22:05;100155.73;;;6.92;76.52
43681;BME280;29281;50.356;30.894;2023-10-09T05:23:11;100151.73;;;6.85;76.74
43681;BME280;29281;50.356;30.894;2023-10-09T05:24:30;100154.57;;;6.98;77.00
43681;BME280;29281;50.356;30.894;2023-10-09T05:25:38;100157.25;;;7.29;75.39
43681;BME280;29281;50.356;30.894;2023-10-09T05:26:59;100159.20;;;7.57;74.01
43681;BME280;29281;50.356;30.894;2023-10-09T05:28:10;100157.66;;;7.22;75.13
43681;BME280;29281;50.356;30.894;2023-10-09T05:29:32;100154.75;;;7.11;75.69
43681;BME280;29281;50.356;30.894;2023-10-09T05:30:41;100166.48;;;7.05;75.69
43681;BME280;29281;50.356;30.894;2023-10-09T05:31:48;100161.41;;;7.33;74.57
43681;BME280;29281;50.356;30.894;2023-10-09T05:33:11;100162.69;;;7.26;74.97
43681;BME280;29281;50.356;30.894;2023-10-09T05:34:33;100164.06;;;7.18;74.62
43681;BME280;29281;50.356;30.894;2023-10-09T05:35:37;100159.31;;;6.91;75.83
43681;BME280;29281;50.356;30.894;2023-10-09T05:36:44;100162.22;;;6.87;76.14
43681;BME280;29281;50.356;30.894;2023-10-09T05:37:49;100159.61;;;7.02;75.58
43681;BME280;29281;50.356;30.894;2023-10-09T05:38:55;100163.29;;;7.16;75.22
43681;BME280;29281;50.356;30.894;2023-10-09T05:40:06;100167.20;;;7.24;74.79
43681;BME280;29281;50.356;30.894;2023-10-09T05:41:20;100164.16;;;7.32;74.61
43681;BME280;29281;50.356;30.894;2023-10-09T05:42:37;100166.88;;;7.62;73.59
43681;BME280;29281;50.356;30.894;2023-10-09T05:43:42;100172.49;;;7.71;72.31
43681;BME280;29281;50.356;30.894;2023-10-09T05:45:04;100165.95;;;7.63;72.70
43681;BME280;29281;50.356;30.894;2023-10-09T05:46:27;100174.88;;;7.76;72.00
43681;BME280;29281;50.356;30.894;2023-10-09T05:47:29;100175.73;;;7.29;73.56
43681;BME280;29281;50.356;30.894;2023-10-09T05:48:34;100177.26;;;7.49;73.33
43681;BME280;29281;50.356;30.894;2023-10-09T05:49:44;100170.45;;;7.29;73.60
43681;BME280;29281;50.356;30.894;2023-10-09T05:50:51;100174.78;;;7.15;73.70
43681;BME280;29281;50.356;30.894;2023-10-09T05:52:14;100180.86;;;7.32;73.60
43681;BME280;29281;50.356;30.894;2023-10-09T05:53:28;100188.59;;;7.35;73.03
43681;BME280;29281;50.356;30.894;2023-10-09T05:54:48;100181.52;;;7.36;73.90
43681;BME280;29281;50.356;30.894;2023-10-09T05:56:00;100188.95;;;7.29;74.07
43681;BME280;29281;50.356;30.894;2023-10-09T05:57:22;100185.63;;;7.57;72.92
43681;BME280;29281;50.356;30.894;2023-10-09T05:58:43;100188.69;;;7.50;72.87